Terminal Aerodrome Forecast
Issued by NWS Quad Cities IA IL

Home | Current Version | Previous Version | Text Only | Print | Product List | Glossary On
Versions: 1 2 3 4 5 6 7 8 9 10 11 12 13 14
577
FTUS43 KDVN 171130
TAFDBQ
TAF
KDBQ 171130Z 1712/1812 16005KT P6SM SCT250
     FM171500 21010KT P6SM SKC
     FM180900 25006KT P6SM SKC=

USA.gov is the U.S. government's official web portal to all federal, state and local government web resources and services.